sensor_id;sensor_type;location;lat;lon;timestamp;pressure;altitude;pressure_sealevel;temperature;humidity
74893;BME280;63446;56.272;43.922;2024-02-23T00:01:06;101870.94;;;-3.12;56.36
74893;BME280;63446;56.272;43.922;2024-02-23T00:03:33;101879.41;;;-3.10;56.33
74893;BME280;63446;56.272;43.922;2024-02-23T00:06:01;101881.44;;;-3.14;56.23
74893;BME280;63446;56.272;43.922;2024-02-23T00:08:27;101878.97;;;-3.15;56.27
74893;BME280;63446;56.272;43.922;2024-02-23T00:10:52;101878.16;;;-3.16;56.30
74893;BME280;63446;56.272;43.922;2024-02-23T00:13:18;101888.78;;;-3.19;56.18
74893;BME280;63446;56.272;43.922;2024-02-23T00:15:44;101874.50;;;-3.23;56.25
74893;BME280;63446;56.272;43.922;2024-02-23T00:18:10;101872.34;;;-3.28;56.29
74893;BME280;63446;56.272;43.922;2024-02-23T00:20:37;101868.16;;;-3.29;56.19
74893;BME280;63446;56.272;43.922;2024-02-23T00:23:03;101871.16;;;-3.33;56.24
74893;BME280;63446;56.272;43.922;2024-02-23T00:25:29;101871.44;;;-3.36;56.36
74893;BME280;63446;56.272;43.922;2024-02-23T00:27:55;101866.97;;;-3.44;56.38
74893;BME280;63446;56.272;43.922;2024-02-23T00:30:20;101872.53;;;-3.39;56.31
74893;BME280;63446;56.272;43.922;2024-02-23T00:32:46;101873.63;;;-3.41;56.38
74893;BME280;63446;56.272;43.922;2024-02-23T00:35:12;101871.97;;;-3.42;56.42
74893;BME280;63446;56.272;43.922;2024-02-23T00:37:38;101875.53;;;-3.44;56.42
74893;BME280;63446;56.272;43.922;2024-02-23T00:40:04;101873.09;;;-3.45;56.52
74893;BME280;63446;56.272;43.922;2024-02-23T00:42:31;101871.31;;;-3.45;56.51
74893;BME280;63446;56.272;43.922;2024-02-23T00:44:56;101869.81;;;-3.47;56.24
74893;BME280;63446;56.272;43.922;2024-02-23T00:47:22;101871.75;;;-3.49;56.43
74893;BME280;63446;56.272;43.922;2024-02-23T00:49:48;101867.41;;;-3.49;56.33
74893;BME280;63446;56.272;43.922;2024-02-23T00:52:14;101872.56;;;-3.49;56.37
74893;BME280;63446;56.272;43.922;2024-02-23T00:54:40;101871.75;;;-3.49;56.39
74893;BME280;63446;56.272;43.922;2024-02-23T00:57:06;101873.63;;;-3.51;56.27
74893;BME280;63446;56.272;43.922;2024-02-23T00:59:32;101879.63;;;-3.51;56.40
74893;BME280;63446;56.272;43.922;2024-02-23T01:01:58;101869.28;;;-3.51;56.49
74893;BME280;63446;56.272;43.922;2024-02-23T01:04:24;101885.47;;;-3.49;56.35
74893;BME280;63446;56.272;43.922;2024-02-23T01:06:51;101882.22;;;-3.51;56.37
74893;BME280;63446;56.272;43.922;2024-02-23T01:09:17;101881.28;;;-3.50;56.53
74893;BME280;63446;56.272;43.922;2024-02-23T01:11:49;101882.09;;;-3.49;56.39
74893;BME280;63446;56.272;43.922;2024-02-23T01:14:15;101877.72;;;-3.49;56.35
74893;BME280;63446;56.272;43.922;2024-02-23T01:16:41;101880.44;;;-3.50;56.46
74893;BME280;63446;56.272;43.922;2024-02-23T01:19:07;101878.00;;;-3.52;56.34
74893;BME280;63446;56.272;43.922;2024-02-23T01:21:34;101872.03;;;-3.52;56.31
74893;BME280;63446;56.272;43.922;2024-02-23T01:24:01;101868.63;;;-3.53;56.47
74893;BME280;63446;56.272;43.922;2024-02-23T01:26:26;101872.13;;;-3.54;56.39
74893;BME280;63446;56.272;43.922;2024-02-23T01:28:53;101875.41;;;-3.52;56.32
74893;BME280;63446;56.272;43.922;2024-02-23T01:31:19;101864.38;;;-3.54;56.33
74893;BME280;63446;56.272;43.922;2024-02-23T01:33:45;101869.84;;;-3.57;56.45
74893;BME280;63446;56.272;43.922;2024-02-23T01:36:10;101870.41;;;-3.53;56.33
74893;BME280;63446;56.272;43.922;2024-02-23T01:38:37;101872.97;;;-3.53;56.50
74893;BME280;63446;56.272;43.922;2024-02-23T01:41:03;101880.44;;;-3.50;56.24
74893;BME280;63446;56.272;43.922;2024-02-23T01:43:30;101866.84;;;-3.52;56.45
74893;BME280;63446;56.272;43.922;2024-02-23T01:45:55;101859.91;;;-3.52;56.36
74893;BME280;63446;56.272;43.922;2024-02-23T01:48:21;101866.69;;;-3.51;56.52
74893;BME280;63446;56.272;43.922;2024-02-23T01:50:47;101869.28;;;-3.51;56.41
74893;BME280;63446;56.272;43.922;2024-02-23T01:53:13;101874.44;;;-3.51;56.23
74893;BME280;63446;56.272;43.922;2024-02-23T01:55:42;101872.84;;;-3.52;56.45
74893;BME280;63446;56.272;43.922;2024-02-23T01:58:11;101878.00;;;-3.52;56.28
74893;BME280;63446;56.272;43.922;2024-02-23T02:00:37;101881.00;;;-3.56;56.30
74893;BME280;63446;56.272;43.922;2024-02-23T02:03:04;101873.53;;;-3.59;56.39
74893;BME280;63446;56.272;43.922;2024-02-23T02:05:30;101894.72;;;-3.65;56.28
74893;BME280;63446;56.272;43.922;2024-02-23T02:07:56;101894.19;;;-3.69;56.39
74893;BME280;63446;56.272;43.922;2024-02-23T02:10:25;101891.91;;;-3.72;56.47
74893;BME280;63446;56.272;43.922;2024-02-23T02:12:52;101886.31;;;-3.77;56.56
74893;BME280;63446;56.272;43.922;2024-02-23T02:15:18;101898.84;;;-3.82;56.50
74893;BME280;63446;56.272;43.922;2024-02-23T02:17:47;101899.78;;;-3.83;56.44
74893;BME280;63446;56.272;43.922;2024-02-23T02:20:13;101900.72;;;-3.84;56.63
74893;BME280;63446;56.272;43.922;2024-02-23T02:22:40;101902.66;;;-3.86;56.62
74893;BME280;63446;56.272;43.922;2024-02-23T02:25:06;101904.41;;;-3.87;56.65
74893;BME280;63446;56.272;43.922;2024-02-23T02:27:37;101897.75;;;-3.89;56.72
74893;BME280;63446;56.272;43.922;2024-02-23T02:30:04;101908.06;;;-3.89;56.54
74893;BME280;63446;56.272;43.922;2024-02-23T02:32:31;101912.44;;;-3.90;56.71
74893;BME280;63446;56.272;43.922;2024-02-23T02:34:57;101908.22;;;-3.91;56.66
74893;BME280;63446;56.272;43.922;2024-02-23T02:37:22;101910.00;;;-3.91;56.67
74893;BME280;63446;56.272;43.922;2024-02-23T02:39:49;101902.25;;;-3.91;56.77
74893;BME280;63446;56.272;43.922;2024-02-23T02:42:15;101898.00;;;-3.93;56.68
74893;BME280;63446;56.272;43.922;2024-02-23T02:44:41;101904.69;;;-3.90;56.72
74893;BME280;63446;56.272;43.922;2024-02-23T02:47:07;101907.41;;;-3.91;56.88
74893;BME280;63446;56.272;43.922;2024-02-23T02:49:32;101908.22;;;-3.91;56.60
74893;BME280;63446;56.272;43.922;2024-02-23T02:51:58;101907.13;;;-3.88;56.76
74893;BME280;63446;56.272;43.922;2024-02-23T02:54:24;101909.84;;;-3.90;56.82
74893;BME280;63446;56.272;43.922;2024-02-23T02:56:50;101906.19;;;-3.87;56.81
74893;BME280;63446;56.272;43.922;2024-02-23T02:59:21;101909.59;;;-3.87;56.71
74893;BME280;63446;56.272;43.922;2024-02-23T03:01:47;101906.19;;;-3.87;56.66
74893;BME280;63446;56.272;43.922;2024-02-23T03:04:13;101913.13;;;-3.88;56.73
74893;BME280;63446;56.272;43.922;2024-02-23T03:06:38;101917.19;;;-3.85;56.72
74893;BME280;63446;56.272;43.922;2024-02-23T03:09:04;101912.16;;;-3.87;56.80
74893;BME280;63446;56.272;43.922;2024-02-23T03:11:30;101922.34;;;-3.85;56.75
74893;BME280;63446;56.272;43.922;2024-02-23T03:13:57;101918.00;;;-3.85;56.83
74893;BME280;63446;56.272;43.922;2024-02-23T03:16:23;101918.41;;;-3.89;56.80
74893;BME280;63446;56.272;43.922;2024-02-23T03:18:50;101924.81;;;-3.84;56.89
74893;BME280;63446;56.272;43.922;2024-02-23T03:21:17;101922.91;;;-3.82;56.89
74893;BME280;63446;56.272;43.922;2024-02-23T03:23:42;101921.00;;;-3.80;56.87
74893;BME280;63446;56.272;43.922;2024-02-23T03:26:08;101923.72;;;-3.81;56.88
74893;BME280;63446;56.272;43.922;2024-02-23T03:28:34;101923.03;;;-3.83;56.79
74893;BME280;63446;56.272;43.922;2024-02-23T03:31:00;101923.97;;;-3.84;56.78
74893;BME280;63446;56.272;43.922;2024-02-23T03:33:27;101921.38;;;-3.84;56.82
74893;BME280;63446;56.272;43.922;2024-02-23T03:35:53;101912.97;;;-3.86;56.74
74893;BME280;63446;56.272;43.922;2024-02-23T03:38:19;101923.97;;;-3.84;56.89
74893;BME280;63446;56.272;43.922;2024-02-23T03:40:45;101920.59;;;-3.85;56.88
74893;BME280;63446;56.272;43.922;2024-02-23T03:43:11;101911.22;;;-3.86;56.76
74893;BME280;63446;56.272;43.922;2024-02-23T03:45:37;101928.22;;;-3.83;56.74
74893;BME280;63446;56.272;43.922;2024-02-23T03:48:04;101927.41;;;-3.84;56.79
74893;BME280;63446;56.272;43.922;2024-02-23T03:50:30;101925.75;;;-3.85;56.80
74893;BME280;63446;56.272;43.922;2024-02-23T03:52:56;101934.19;;;-3.83;56.74
74893;BME280;63446;56.272;43.922;2024-02-23T03:55:21;101934.19;;;-3.83;56.84
74893;BME280;63446;56.272;43.922;2024-02-23T03:57:48;101931.59;;;-3.83;56.82
74893;BME280;63446;56.272;43.922;2024-02-23T04:00:14;101932.56;;;-3.84;56.76
74893;BME280;63446;56.272;43.922;2024-02-23T04:02:41;101936.88;;;-3.84;56.84
74893;BME280;63446;56.272;43.922;2024-02-23T04:05:07;101936.06;;;-3.85;56.87
74893;BME280;63446;56.272;43.922;2024-02-23T04:07:33;101934.19;;;-3.83;56.89
74893;BME280;63446;56.272;43.922;2024-02-23T04:09:59;101935.00;;;-3.82;56.86
74893;BME280;63446;56.272;43.922;2024-02-23T04:12:25;101938.28;;;-3.80;56.82
74893;BME280;63446;56.272;43.922;2024-02-23T04:14:51;101942.34;;;-3.78;56.73
74893;BME280;63446;56.272;43.922;2024-02-23T04:17:17;101943.84;;;-3.75;56.86
74893;BME280;63446;56.272;43.922;2024-02-23T04:19:44;101945.34;;;-3.73;56.76
74893;BME280;63446;56.272;43.922;2024-02-23T04:22:10;101947.78;;;-3.71;56.73
74893;BME280;63446;56.272;43.922;2024-02-23T04:24:39;101947.53;;;-3.68;56.66
74893;BME280;63446;56.272;43.922;2024-02-23T04:27:05;101942.22;;;-3.66;56.75
74893;BME280;63446;56.272;43.922;2024-02-23T04:29:31;101950.50;;;-3.63;56.58
74893;BME280;63446;56.272;43.922;2024-02-23T04:32:01;101956.22;;;-3.59;56.53
74893;BME280;63446;56.272;43.922;2024-02-23T04:34:27;101957.72;;;-3.57;56.58
74893;BME280;63446;56.272;43.922;2024-02-23T04:36:54;101946.44;;;-3.56;56.49
74893;BME280;63446;56.272;43.922;2024-02-23T04:39:21;101947.94;;;-3.53;56.40
74893;BME280;63446;56.272;43.922;2024-02-23T04:41:48;101954.56;;;-3.51;56.37
74893;BME280;63446;56.272;43.922;2024-02-23T04:44:13;101953.06;;;-3.44;56.38
74893;BME280;63446;56.272;43.922;2024-02-23T04:46:39;101958.13;;;-3.42;56.17
74893;BME280;63446;56.272;43.922;2024-02-23T04:49:05;101954.31;;;-3.38;56.23
74893;BME280;63446;56.272;43.922;2024-02-23T04:51:33;101958.25;;;-3.34;56.28
74893;BME280;63446;56.272;43.922;2024-02-23T04:53:59;101971.41;;;-3.27;56.09
74893;BME280;63446;56.272;43.922;2024-02-23T04:56:25;101953.75;;;-3.22;56.20
74893;BME280;63446;56.272;43.922;2024-02-23T04:58:51;101947.88;;;-3.24;56.05
74893;BME280;63446;56.272;43.922;2024-02-23T05:01:17;101961.03;;;-3.08;56.18
74893;BME280;63446;56.272;43.922;2024-02-23T05:03:44;101956.13;;;-3.01;55.97
74893;BME280;63446;56.272;43.922;2024-02-23T05:06:11;101955.59;;;-2.95;55.88
74893;BME280;63446;56.272;43.922;2024-02-23T05:08:38;101959.38;;;-2.89;55.87
74893;BME280;63446;56.272;43.922;2024-02-23T05:11:04;101962.38;;;-2.84;55.70
74893;BME280;63446;56.272;43.922;2024-02-23T05:13:29;101964.38;;;-2.78;55.63
74893;BME280;63446;56.272;43.922;2024-02-23T05:15:55;101963.28;;;-2.76;55.52
74893;BME280;63446;56.272;43.922;2024-02-23T05:18:22;101965.44;;;-2.71;55.57
74893;BME280;63446;56.272;43.922;2024-02-23T05:20:51;101970.72;;;-2.63;55.37
74893;BME280;63446;56.272;43.922;2024-02-23T05:23:17;101973.56;;;-2.56;55.43
74893;BME280;63446;56.272;43.922;2024-02-23T05:25:43;101974.63;;;-2.49;55.43
74893;BME280;63446;56.272;43.922;2024-02-23T05:28:09;101970.50;;;-2.42;55.27
74893;BME280;63446;56.272;43.922;2024-02-23T05:30:35;101982.03;;;-2.36;54.98
74893;BME280;63446;56.272;43.922;2024-02-23T05:33:00;101976.00;;;-2.27;55.05
74893;BME280;63446;56.272;43.922;2024-02-23T05:35:29;101973.38;;;-2.17;54.84
74893;BME280;63446;56.272;43.922;2024-02-23T05:37:55;101962.44;;;-2.11;54.75
74893;BME280;63446;56.272;43.922;2024-02-23T05:40:21;101972.72;;;-2.02;54.73
74893;BME280;63446;56.272;43.922;2024-02-23T05:42:47;101969.25;;;-1.92;54.55
74893;BME280;63446;56.272;43.922;2024-02-23T05:45:13;101968.50;;;-1.85;54.53
74893;BME280;63446;56.272;43.922;2024-02-23T05:47:39;101966.00;;;-1.77;54.47
74893;BME280;63446;56.272;43.922;2024-02-23T05:50:08;101966.91;;;-1.68;54.40
74893;BME280;63446;56.272;43.922;2024-02-23T05:52:37;101971.47;;;-1.62;54.22
74893;BME280;63446;56.272;43.922;2024-02-23T05:55:05;101963.91;;;-1.55;54.09
74893;BME280;63446;56.272;43.922;2024-02-23T05:57:31;101979.69;;;-1.49;54.09
74893;BME280;63446;56.272;43.922;2024-02-23T05:59:57;101985.41;;;-1.45;54.05
74893;BME280;63446;56.272;43.922;2024-02-23T06:02:23;101988.81;;;-1.44;54.02
74893;BME280;63446;56.272;43.922;2024-02-23T06:04:49;101985.25;;;-1.43;54.02
74893;BME280;63446;56.272;43.922;2024-02-23T06:07:16;101994.50;;;-1.41;53.88
74893;BME280;63446;56.272;43.922;2024-02-23T06:09:43;101985.13;;;-1.42;53.96
74893;BME280;63446;56.272;43.922;2024-02-23T06:12:09;101996.94;;;-1.39;53.75
74893;BME280;63446;56.272;43.922;2024-02-23T06:14:35;101996.81;;;-1.38;53.92
74893;BME280;63446;56.272;43.922;2024-02-23T06:17:02;101997.34;;;-1.34;53.85
74893;BME280;63446;56.272;43.922;2024-02-23T06:19:28;101989.09;;;-1.30;53.67
74893;BME280;63446;56.272;43.922;2024-02-23T06:21:54;102002.56;;;-1.26;53.57
74893;BME280;63446;56.272;43.922;2024-02-23T06:24:20;102003.44;;;-1.17;53.53
74893;BME280;63446;56.272;43.922;2024-02-23T06:26:46;102000.09;;;-1.10;53.39
74893;BME280;63446;56.272;43.922;2024-02-23T06:29:14;101997.38;;;-1.00;53.17
74893;BME280;63446;56.272;43.922;2024-02-23T06:31:40;101997.91;;;-0.96;52.93
74893;BME280;63446;56.272;43.922;2024-02-23T06:34:08;101994.72;;;-0.90;52.91
74893;BME280;63446;56.272;43.922;2024-02-23T06:36:34;102010.50;;;-0.84;52.71
74893;BME280;63446;56.272;43.922;2024-02-23T06:39:00;102007.13;;;-0.76;52.75
74893;BME280;63446;56.272;43.922;2024-02-23T06:41:25;102011.56;;;-0.68;52.66
74893;BME280;63446;56.272;43.922;2024-02-23T06:43:51;102017.91;;;-0.63;52.44
74893;BME280;63446;56.272;43.922;2024-02-23T06:46:21;102014.53;;;-0.55;52.25
74893;BME280;63446;56.272;43.922;2024-02-23T06:48:48;102012.66;;;-0.45;52.19
74893;BME280;63446;56.272;43.922;2024-02-23T06:51:19;102004.88;;;-0.37;52.09
74893;BME280;63446;56.272;43.922;2024-02-23T06:54:37;102018.59;;;-0.27;52.02
74893;BME280;63446;56.272;43.922;2024-02-23T06:57:25;102021.69;;;-0.23;51.70
74893;BME280;63446;56.272;43.922;2024-02-23T07:00:22;102027.22;;;-0.18;51.62
74893;BME280;63446;56.272;43.922;2024-02-23T07:03:16;102029.16;;;-0.12;51.53
74893;BME280;63446;56.272;43.922;2024-02-23T07:08:45;102027.13;;;0.00;51.28
74893;BME280;63446;56.272;43.922;2024-02-23T07:11:19;102031.84;;;0.05;51.09
74893;BME280;63446;56.272;43.922;2024-02-23T07:14:21;102030.88;;;0.06;51.01
74893;BME280;63446;56.272;43.922;2024-02-23T07:17:25;102026.00;;;0.11;50.92
74893;BME280;63446;56.272;43.922;2024-02-23T07:19:58;102030.91;;;0.22;50.87
74893;BME280;63446;56.272;43.922;2024-02-23T07:22:32;102034.00;;;0.34;50.59
74893;BME280;63446;56.272;43.922;2024-02-23T07:24:58;102042.00;;;0.48;50.43
74893;BME280;63446;56.272;43.922;2024-02-23T07:27:25;102035.34;;;0.62;50.43
74893;BME280;63446;56.272;43.922;2024-02-23T07:29:51;102023.78;;;0.65;49.97
74893;BME280;63446;56.272;43.922;2024-02-23T07:32:18;102041.38;;;0.71;49.80
74893;BME280;63446;56.272;43.922;2024-02-23T07:34:43;102033.25;;;0.74;49.79
74893;BME280;63446;56.272;43.922;2024-02-23T07:37:10;102045.44;;;0.82;49.82
74893;BME280;63446;56.272;43.922;2024-02-23T07:39:36;102036.97;;;0.88;49.74
74893;BME280;63446;56.272;43.922;2024-02-23T07:42:03;102035.66;;;0.92;49.67
74893;BME280;63446;56.272;43.922;2024-02-23T07:44:29;102043.16;;;0.95;49.45
74893;BME280;63446;56.272;43.922;2024-02-23T07:46:54;102037.31;;;1.01;49.62
74893;BME280;63446;56.272;43.922;2024-02-23T07:49:21;102034.69;;;1.09;49.40
74893;BME280;63446;56.272;43.922;2024-02-23T07:51:49;102035.00;;;1.14;49.29
74893;BME280;63446;56.272;43.922;2024-02-23T07:54:15;102031.88;;;1.19;49.04
74893;BME280;63446;56.272;43.922;2024-02-23T07:56:41;102035.66;;;1.25;49.07
74893;BME280;63446;56.272;43.922;2024-02-23T07:59:07;102042.63;;;1.32;48.87
74893;BME280;63446;56.272;43.922;2024-02-23T08:01:34;102043.25;;;1.34;48.60
74893;BME280;63446;56.272;43.922;2024-02-23T08:04:00;102038.06;;;1.42;48.80
74893;BME280;63446;56.272;43.922;2024-02-23T08:06:27;102041.13;;;1.54;48.72
74893;BME280;63446;56.272;43.922;2024-02-23T08:08:52;102047.72;;;1.65;48.50
74893;BME280;63446;56.272;43.922;2024-02-23T08:11:19;102040.38;;;1.68;48.25
74893;BME280;63446;56.272;43.922;2024-02-23T08:13:45;102041.38;;;1.67;48.04
74893;BME280;63446;56.272;43.922;2024-02-23T08:16:16;102051.66;;;1.61;47.69
74893;BME280;63446;56.272;43.922;2024-02-23T08:18:43;102053.31;;;1.54;47.65
74893;BME280;63446;56.272;43.922;2024-02-23T08:21:12;102048.09;;;1.54;47.66
74893;BME280;63446;56.272;43.922;2024-02-23T08:23:39;102043.88;;;1.53;47.57
74893;BME280;63446;56.272;43.922;2024-02-23T08:26:06;102053.97;;;1.56;47.52
74893;BME280;63446;56.272;43.922;2024-02-23T08:28:32;102056.88;;;1.61;47.52
74893;BME280;63446;56.272;43.922;2024-02-23T08:30:58;102051.81;;;1.67;47.49
74893;BME280;63446;56.272;43.922;2024-02-23T08:33:30;102057.16;;;1.74;47.40
74893;BME280;63446;56.272;43.922;2024-02-23T08:35:58;102061.34;;;1.83;47.25
74893;BME280;63446;56.272;43.922;2024-02-23T08:38:23;102053.69;;;1.90;47.18
74893;BME280;63446;56.272;43.922;2024-02-23T08:40:50;102068.19;;;1.92;47.06
74893;BME280;63446;56.272;43.922;2024-02-23T08:43:16;102061.50;;;1.90;46.87
74893;BME280;63446;56.272;43.922;2024-02-23T08:45:42;102059.88;;;1.89;47.07
74893;BME280;63446;56.272;43.922;2024-02-23T08:48:08;102058.25;;;1.88;46.97
74893;BME280;63446;56.272;43.922;2024-02-23T08:50:34;102048.16;;;1.85;46.88
74893;BME280;63446;56.272;43.922;2024-02-23T08:53:00;102049.56;;;1.95;46.87
74893;BME280;63446;56.272;43.922;2024-02-23T08:55:26;102045.63;;;2.08;46.81
74893;BME280;63446;56.272;43.922;2024-02-23T08:57:52;102055.31;;;2.22;46.56
74893;BME280;63446;56.272;43.922;2024-02-23T09:00:18;102038.28;;;2.34;46.57
74893;BME280;63446;56.272;43.922;2024-02-23T09:02:53;102053.66;;;2.52;46.48
74893;BME280;63446;56.272;43.922;2024-02-23T09:05:21;102047.22;;;2.63;46.37
74893;BME280;63446;56.272;43.922;2024-02-23T09:07:47;102052.09;;;2.66;46.25
74893;BME280;63446;56.272;43.922;2024-02-23T09:10:13;102046.09;;;2.57;45.91
74893;BME280;63446;56.272;43.922;2024-02-23T09:12:39;102047.63;;;2.52;45.99
74893;BME280;63446;56.272;43.922;2024-02-23T09:15:06;102050.06;;;2.53;45.97
74893;BME280;63446;56.272;43.922;2024-02-23T09:17:33;102048.38;;;2.60;46.04
74893;BME280;63446;56.272;43.922;2024-02-23T09:20:00;102045.53;;;2.70;45.88
74893;BME280;63446;56.272;43.922;2024-02-23T09:22:25;102043.69;;;2.79;45.89
74893;BME280;63446;56.272;43.922;2024-02-23T09:24:52;102050.28;;;2.89;45.86
74893;BME280;63446;56.272;43.922;2024-02-23T09:27:20;102055.09;;;3.01;45.83
74893;BME280;63446;56.272;43.922;2024-02-23T09:29:46;102045.19;;;3.11;45.59
74893;BME280;63446;56.272;43.922;2024-02-23T09:32:14;102054.28;;;3.15;45.56
74893;BME280;63446;56.272;43.922;2024-02-23T09:34:39;102051.66;;;3.15;45.39
74893;BME280;63446;56.272;43.922;2024-02-23T09:37:05;102055.47;;;3.12;45.23
74893;BME280;63446;56.272;43.922;2024-02-23T09:39:32;102066.47;;;3.08;45.42
74893;BME280;63446;56.272;43.922;2024-02-23T09:41:58;102067.63;;;3.05;45.39
74893;BME280;63446;56.272;43.922;2024-02-23T09:44:26;102061.59;;;3.05;45.39
74893;BME280;63446;56.272;43.922;2024-02-23T09:47:00;102068.59;;;3.04;45.32
74893;BME280;63446;56.272;43.922;2024-02-23T09:49:39;102066.81;;;3.05;45.28
74893;BME280;63446;56.272;43.922;2024-02-23T09:52:09;102071.38;;;3.03;45.36
74893;BME280;63446;56.272;43.922;2024-02-23T09:54:38;102075.25;;;3.07;45.38
74893;BME280;63446;56.272;43.922;2024-02-23T09:57:09;102075.72;;;3.10;45.04
74893;BME280;63446;56.272;43.922;2024-02-23T09:59:35;102074.28;;;3.08;45.08
74893;BME280;63446;56.272;43.922;2024-02-23T10:02:08;102075.25;;;3.07;44.91
74893;BME280;63446;56.272;43.922;2024-02-23T10:04:39;102071.72;;;3.00;44.93
74893;BME280;63446;56.272;43.922;2024-02-23T10:07:06;102075.22;;;2.92;45.01
74893;BME280;63446;56.272;43.922;2024-02-23T10:09:32;102077.75;;;2.85;44.98
74893;BME280;63446;56.272;43.922;2024-02-23T10:11:59;102075.47;;;2.82;45.06
74893;BME280;63446;56.272;43.922;2024-02-23T10:14:25;102090.34;;;2.82;45.20
74893;BME280;63446;56.272;43.922;2024-02-23T10:16:51;102081.50;;;2.83;45.14
74893;BME280;63446;56.272;43.922;2024-02-23T10:19:20;102083.50;;;2.81;45.10
74893;BME280;63446;56.272;43.922;2024-02-23T10:21:46;102076.63;;;2.80;44.84
74893;BME280;63446;56.272;43.922;2024-02-23T10:24:15;102073.28;;;2.71;44.76
74893;BME280;63446;56.272;43.922;2024-02-23T10:26:43;102069.56;;;2.65;44.83
74893;BME280;63446;56.272;43.922;2024-02-23T10:29:10;102075.28;;;2.61;44.96
74893;BME280;63446;56.272;43.922;2024-02-23T10:31:36;102087.72;;;2.59;44.85
74893;BME280;63446;56.272;43.922;2024-02-23T10:34:09;102075.19;;;2.54;44.85
74893;BME280;63446;56.272;43.922;2024-02-23T10:36:40;102083.50;;;2.58;45.02
74893;BME280;63446;56.272;43.922;2024-02-23T10:39:08;102085.09;;;2.59;45.08
74893;BME280;63446;56.272;43.922;2024-02-23T10:41:39;102088.72;;;2.58;45.05
74893;BME280;63446;56.272;43.922;2024-02-23T10:44:10;102087.25;;;2.55;45.13
74893;BME280;63446;56.272;43.922;2024-02-23T10:46:37;102084.81;;;2.54;45.37
74893;BME280;63446;56.272;43.922;2024-02-23T10:49:09;102098.16;;;2.59;45.52
74893;BME280;63446;56.272;43.922;2024-02-23T10:51:39;102096.53;;;2.58;45.29
74893;BME280;63446;56.272;43.922;2024-02-23T10:54:06;102109.94;;;2.55;45.40
74893;BME280;63446;56.272;43.922;2024-02-23T10:56:31;102102.09;;;2.55;45.39
74893;BME280;63446;56.272;43.922;2024-02-23T10:58:59;102113.53;;;2.54;45.40
74893;BME280;63446;56.272;43.922;2024-02-23T11:01:25;102108.81;;;2.49;45.37
74893;BME280;63446;56.272;43.922;2024-02-23T11:03:54;102112.59;;;2.47;45.55
74893;BME280;63446;56.272;43.922;2024-02-23T11:06:27;102107.53;;;2.45;45.62
74893;BME280;63446;56.272;43.922;2024-02-23T11:08:53;102116.81;;;2.48;45.88
74893;BME280;63446;56.272;43.922;2024-02-23T11:11:21;102115.00;;;2.48;45.92
74893;BME280;63446;56.272;43.922;2024-02-23T11:13:47;102115.00;;;2.48;45.96
74893;BME280;63446;56.272;43.922;2024-02-23T11:16:21;102121.38;;;2.45;46.13
74893;BME280;63446;56.272;43.922;2024-02-23T11:18:49;102122.72;;;2.41;46.22
74893;BME280;63446;56.272;43.922;2024-02-23T11:21:15;102114.59;;;2.36;45.94
74893;BME280;63446;56.272;43.922;2024-02-23T11:23:45;102120.81;;;2.35;46.06
74893;BME280;63446;56.272;43.922;2024-02-23T11:26:14;102120.00;;;2.35;46.02
74893;BME280;63446;56.272;43.922;2024-02-23T11:28:51;102113.66;;;2.29;45.96
74893;BME280;63446;56.272;43.922;2024-02-23T11:31:22;102113.97;;;2.26;46.13
74893;BME280;63446;56.272;43.922;2024-02-23T11:33:53;102122.47;;;2.28;46.09
74893;BME280;63446;56.272;43.922;2024-02-23T11:36:31;102127.34;;;2.31;46.10
74893;BME280;63446;56.272;43.922;2024-02-23T11:38:59;102132.03;;;2.36;46.09
74893;BME280;63446;56.272;43.922;2024-02-23T11:41:29;102136.22;;;2.45;46.09
74893;BME280;63446;56.272;43.922;2024-02-23T11:43:56;102136.19;;;2.53;46.07
74893;BME280;63446;56.272;43.922;2024-02-23T11:46:22;102126.41;;;2.55;45.96
74893;BME280;63446;56.272;43.922;2024-02-23T11:48:49;102131.16;;;2.52;46.01
74893;BME280;63446;56.272;43.922;2024-02-23T11:51:25;102129.09;;;2.39;46.02
74893;BME280;63446;56.272;43.922;2024-02-23T11:53:55;102126.06;;;2.27;45.98
74893;BME280;63446;56.272;43.922;2024-02-23T11:56:26;102121.84;;;2.18;46.14
74893;BME280;63446;56.272;43.922;2024-02-23T11:58:54;102127.75;;;2.12;46.15
74893;BME280;63446;56.272;43.922;2024-02-23T12:01:21;102130.38;;;2.04;46.19
74893;BME280;63446;56.272;43.922;2024-02-23T12:03:47;102137.09;;;1.98;46.14
74893;BME280;63446;56.272;43.922;2024-02-23T12:06:14;102129.44;;;1.97;46.27
74893;BME280;63446;56.272;43.922;2024-02-23T12:08:44;102117.06;;;1.90;46.37
74893;BME280;63446;56.272;43.922;2024-02-23T12:11:12;102130.53;;;2.02;46.50
74893;BME280;63446;56.272;43.922;2024-02-23T12:13:39;102138.84;;;2.06;46.58
74893;BME280;63446;56.272;43.922;2024-02-23T12:16:07;102136.25;;;2.06;46.59
74893;BME280;63446;56.272;43.922;2024-02-23T12:18:36;102138.84;;;2.06;46.84
74893;BME280;63446;56.272;43.922;2024-02-23T12:21:11;102138.84;;;2.06;47.14
74893;BME280;63446;56.272;43.922;2024-02-23T12:23:43;102147.19;;;2.01;47.26
74893;BME280;63446;56.272;43.922;2024-02-23T12:26:13;102147.03;;;1.94;47.52
74893;BME280;63446;56.272;43.922;2024-02-23T12:28:41;102149.50;;;1.88;47.64
74893;BME280;63446;56.272;43.922;2024-02-23T12:31:07;102144.31;;;1.80;47.51
74893;BME280;63446;56.272;43.922;2024-02-23T12:33:34;102137.97;;;1.74;47.68
74893;BME280;63446;56.272;43.922;2024-02-23T12:36:01;102138.63;;;1.68;47.68
74893;BME280;63446;56.272;43.922;2024-02-23T12:38:28;102131.00;;;1.58;47.63
74893;BME280;63446;56.272;43.922;2024-02-23T12:40:54;102130.84;;;1.52;47.82
74893;BME280;63446;56.272;43.922;2024-02-23T12:43:20;102128.06;;;1.45;47.97
74893;BME280;63446;56.272;43.922;2024-02-23T12:45:53;102126.28;;;1.37;48.08
74893;BME280;63446;56.272;43.922;2024-02-23T12:48:21;102131.19;;;1.32;48.16
74893;BME280;63446;56.272;43.922;2024-02-23T12:50:48;102130.38;;;1.24;48.21